• Join FlightAware (Why Join?)
  • Login
  • US Flag 
05:57PM EDT


 

Airport Tracker/Info


-or-


 

Live Flight TrackerFlight Track Log ✈ N534QS ✈ 31-Oct-2013 ✈ SEGU / GYE - LEMD / MAD

Flight Track Log - Related Links

Times and Time Zones

All times are in EDT time to prevent confusion due to time zone crossing. See the N534QS flight status page for this flight to view local times or setup timezone preferences in your user account.

Time Position Orientation Groundspeed Altitude Reporting Facility
EDT Latitude Longitude Course Direction KTS MPH feet Rate Location/Type
03:41AM -2.0831 -79.7998 48° Northeast  Level Estimated
03:42AM -1.9558 -79.6562 48° Northeast  Level Estimated
03:42AM 18.2000 -67.9833 48° Northeast 580 667 41,000  Level San Juan Center
03:43AM -1.8284 -79.5127 48° Northeast  Level Estimated
03:43AM 18.2000 -67.8500 90° East 490 564 41,000  Level San Juan Center
03:44AM -1.7011 -79.3692 48° Northeast  Level Estimated
03:44AM 18.2167 -67.7000 83° East 490 564 41,000  Level San Juan Center
03:45AM -1.5737 -79.2257 48° Northeast  Level Estimated
03:45AM 18.2333 -67.5667 82° East 490 564 41,000  Level San Juan Center
03:46AM -1.4463 -79.0822 48° Northeast  Level Estimated
03:46AM 18.3167 -67.4500 53° Northeast 500 575 41,000  Level San Juan Center
03:47AM -1.3190 -78.9387 48° Northeast  Level Estimated
03:47AM 18.4000 -67.3167 57° Northeast 500 575 41,000  Level San Juan Center
03:48AM 18.4833 -67.2000 53° Northeast 500 575 41,000  Level San Juan Center
03:49AM 18.5667 -67.0833 53° Northeast 500 575 41,000  Level San Juan Center
03:50AM 18.6500 -66.9500 57° Northeast 510 587 41,000  Level San Juan Center
03:51AM 18.7333 -66.8167 57° Northeast 510 587 41,000  Level San Juan Center
03:52AM 18.8167 -66.7000 53° Northeast 500 575 41,000  Level San Juan Center
03:53AM 18.8833 -66.5833 59° Northeast 500 575 41,000  Level San Juan Center
03:54AM 18.9667 -66.4500 57° Northeast 510 587 41,000  Level San Juan Center
03:55AM 19.0500 -66.3333 53° Northeast 510 587 41,000  Level San Juan Center
03:56AM 19.1333 -66.2000 56° Northeast 510 587 41,000  Level San Juan Center
03:57AM 19.2000 -66.1000 55° Northeast 500 575 41,000  Level San Juan Center
03:58AM 19.2833 -65.9667 56° Northeast 510 587 41,000  Level San Juan Center
03:59AM 19.3667 -65.8500 53° Northeast 520 598 41,000  Level San Juan Center
04:00AM 19.4500 -65.7167 56° Northeast 520 598 41,000  Level San Juan Center
04:01AM 19.5167 -65.5833 62° Northeast 520 598 41,000  Level San Juan Center
04:02AM 19.6000 -65.4667 53° Northeast 520 598 41,000  Level San Juan Center
04:03AM 19.6833 -65.3333 56° Northeast 520 598 41,000  Level San Juan Center
04:04AM 19.7667 -65.2000 56° Northeast 520 598 41,000  Level San Juan Center
04:05AM 19.8500 -65.0833 53° Northeast 520 598 41,000  Level San Juan Center
04:06AM 19.9333 -64.9500 56° Northeast 520 598 41,000  Level San Juan Center
04:07AM 20.0167 -64.8167 56° Northeast 520 598 41,000  Level San Juan Center
04:08AM 20.1000 -64.7000 53° Northeast 520 598 41,000  Level San Juan Center
04:09AM 20.1833 -64.5833 53° Northeast 530 610 41,000  Level San Juan Center
04:10AM 20.3000 -64.4833 39° Northeast 520 598 41,000  Level San Juan Center
04:11AM 20.4167 -64.4000 34° Northeast 520 598 41,000  Level San Juan Center
04:12AM 20.5333 -64.3000 39° Northeast 520 598 41,000  Level San Juan Center
04:13AM 20.6500 -64.2167 34° Northeast 520 598 41,000  Level San Juan Center
04:14AM 20.7667 -64.1167 39° Northeast 520 598 41,000  Level San Juan Center
04:15AM 20.8833 -64.0333 34° Northeast 490 564 41,000  Level San Juan Center
04:16AM 20.9667 -63.9167 53° Northeast 490 564 41,000  Level San Juan Center
04:17AM 21.0500 -63.8000 53° Northeast 500 575 41,000  Level San Juan Center
04:18AM 21.1333 -63.6833 53° Northeast 500 575 41,000  Level San Juan Center
04:19AM 21.2000 -63.5500 62° Northeast 490 564 41,000  Level San Juan Center
04:20AM 21.2333 -63.4000 77° East 480 552 41,000  Level San Juan Center
04:21AM 21.2500 -63.2500 83° East 490 564 41,000  Level San Juan Center
04:22AM 21.2833 -63.1167 75° East 500 575 41,000  Level San Juan Center
04:23AM 21.3167 -62.9667 77° East 500 575 41,000  Level San Juan Center
04:24AM 21.3500 -62.8167 77° East 500 575 41,000  Level San Juan Center
04:27AM 21.4785 -62.6764 45° Northeast  Level FlightAware Approximate
04:27AM 21.3833 -62.6333 56° Northeast 499 574 41,000  Level New York Oceanic (ODAPS)
04:34AM 22.0814 -61.5122 56° Northeast 499 574 41,000  Level FlightAware Transoceanic
04:35AM 22.1584 -61.3869 56° Northeast 499 574 41,000  Level FlightAware Transoceanic
04:36AM 22.2354 -61.2615 56° Northeast 499 574 41,000  Level FlightAware Transoceanic
04:37AM 22.3123 -61.1360 57° Northeast 499 574 41,000  Level FlightAware Transoceanic
04:38AM 22.3891 -61.0103 57° Northeast 499 574 41,000  Level FlightAware Transoceanic
04:39AM 22.4658 -60.8845 57° Northeast 499 574 41,000  Level FlightAware Transoceanic
04:40AM 22.5424 -60.7586 57° Northeast 499 574 41,000  Level FlightAware Transoceanic
04:41AM 22.6189 -60.6325 57° Northeast 499 574 41,000  Level FlightAware Transoceanic
04:42AM 22.6954 -60.5063 57° Northeast 499 574 41,000  Level FlightAware Transoceanic
04:43AM 22.7717 -60.3799 57° Northeast 499 574 41,000  Level FlightAware Transoceanic
04:44AM 22.8479 -60.2534 57° Northeast 499 574 41,000  Level FlightAware Transoceanic
04:45AM 22.9240 -60.1268 57° Northeast 499 574 41,000  Level FlightAware Transoceanic
04:46AM 23.0000 -60.0000 41° Northeast 499 574 41,000  Level FlightAware Transoceanic
04:47AM 23.1104 -59.8955 41° Northeast 499 574 41,000  Level FlightAware Transoceanic
04:47AM 23.0000 -60.0000 41° Northeast 526 605 41,000  Level New York Oceanic (ODAPS)
04:48AM 23.2208 -59.7909 41° Northeast 499 574 41,000  Level FlightAware Transoceanic
04:49AM 23.3310 -59.6861 41° Northeast 499 574 41,000  Level FlightAware Transoceanic
04:50AM 23.4412 -59.5812 41° Northeast 499 574 41,000  Level FlightAware Transoceanic
04:51AM 23.5514 -59.4760 41° Northeast 499 574 41,000  Level FlightAware Transoceanic
04:52AM 23.6614 -59.3707 41° Northeast 499 574 41,000  Level FlightAware Transoceanic
04:53AM 23.8813 -59.1595 41° Northeast 526 605 41,000  Level FlightAware Transoceanic
04:54AM 23.9912 -59.0536 41° Northeast 526 605 41,000  Level FlightAware Transoceanic
04:55AM 24.1010 -58.9476 41° Northeast 526 605 41,000  Level FlightAware Transoceanic
04:56AM 24.2107 -58.8414 41° Northeast 526 605 41,000  Level FlightAware Transoceanic
04:57AM 24.3203 -58.7350 42° Northeast 526 605 41,000  Level FlightAware Transoceanic
04:58AM 24.4299 -58.6284 42° Northeast 526 605 41,000  Level FlightAware Transoceanic
04:59AM 24.5393 -58.5216 42° Northeast 526 605 41,000 1,020 Level FlightAware Transoceanic
04:59AM 23.0000 -60.0000 41° Northeast 526 605 43,000  Climbing New York Oceanic (ODAPS)
05:00AM 24.6487 -58.4146 42° Northeast 526 605 41,000 -1,920 Descending FlightAware Transoceanic
05:01AM 24.7581 -58.3075 42° Northeast 526 605 41,000  Level FlightAware Transoceanic
05:02AM 24.8673 -58.2001 42° Northeast 526 605 41,000  Level FlightAware Transoceanic
05:03AM 24.9765 -58.0926 42° Northeast 526 605 41,000  Level FlightAware Transoceanic
05:04AM 25.0856 -57.9849 42° Northeast 526 605 41,000  Level FlightAware Transoceanic
05:05AM 25.1946 -57.8770 42° Northeast 526 605 41,000 960 Level FlightAware Transoceanic
05:06AM 25.3036 -57.7689 42° Northeast 526 605 43,000 960 Climbing FlightAware Transoceanic
05:07AM 25.4124 -57.6606 42° Northeast 526 605 43,000  Level FlightAware Transoceanic
05:08AM 25.5212 -57.5521 42° Northeast 526 605 43,000  Level FlightAware Transoceanic
05:09AM 25.6299 -57.4434 42° Northeast 526 605 43,000  Level FlightAware Transoceanic
05:10AM 25.7385 -57.3345 42° Northeast 526 605 43,000  Level FlightAware Transoceanic
05:11AM 25.8471 -57.2254 42° Northeast 526 605 43,000  Level FlightAware Transoceanic
05:12AM 25.9555 -57.1161 42° Northeast 526 605 43,000  Level FlightAware Transoceanic
05:13AM 26.0639 -57.0066 42° Northeast 526 605 43,000  Level FlightAware Transoceanic
05:14AM 26.1722 -56.8970 42° Northeast 526 605 43,000  Level FlightAware Transoceanic
05:15AM 26.2804 -56.7871 42° Northeast 526 605 43,000  Level FlightAware Transoceanic
05:16AM 26.3885 -56.6770 42° Northeast 526 605 43,000  Level FlightAware Transoceanic
05:17AM 26.4966 -56.5667 42° Northeast 526 605 43,000  Level FlightAware Transoceanic
05:18AM 26.6045 -56.4561 43° Northeast 526 605 43,000  Level FlightAware Transoceanic
05:19AM 26.7124 -56.3454 43° Northeast 526 605 43,000  Level FlightAware Transoceanic
05:20AM 26.8202 -56.2345 43° Northeast 526 605 43,000  Level FlightAware Transoceanic
05:21AM 26.9279 -56.1233 43° Northeast 526 605 43,000  Level FlightAware Transoceanic
05:22AM 27.0355 -56.0120 43° Northeast 526 605 43,000  Level FlightAware Transoceanic
05:23AM 27.1430 -55.9004 43° Northeast 526 605 43,000  Level FlightAware Transoceanic
05:24AM 27.2505 -55.7886 43° Northeast 526 605 43,000  Level FlightAware Transoceanic
05:25AM 27.3578 -55.6766 43° Northeast 526 605 43,000  Level FlightAware Transoceanic
05:26AM 27.4651 -55.5644 43° Northeast 526 605 43,000  Level FlightAware Transoceanic
05:27AM 27.5722 -55.4520 43° Northeast 526 605 43,000  Level FlightAware Transoceanic
05:28AM 27.6793 -55.3393 43° Northeast 526 605 43,000  Level FlightAware Transoceanic
05:29AM 27.7863 -55.2264 43° Northeast 526 605 43,000  Level FlightAware Transoceanic
05:30AM 27.8932 -55.1133 43° Northeast 526 605 43,000  Level FlightAware Transoceanic
05:31AM 28.0000 -55.0000 46° Northeast 526 605 43,000  Level FlightAware Transoceanic
05:32AM 28.1048 -54.8767 46° Northeast 526 605 43,000  Level FlightAware Transoceanic
05:33AM 28.2096 -54.7531 46° Northeast 526 605 43,000  Level FlightAware Transoceanic
05:34AM 28.3142 -54.6293 46° Northeast 526 605 43,000  Level FlightAware Transoceanic
05:35AM 28.4187 -54.5053 46° Northeast 526 605 43,000  Level FlightAware Transoceanic
05:35AM 28.0000 -55.0000 46° Northeast 543 625 43,000  Level New York Oceanic (ODAPS)
05:36AM 28.5231 -54.3810 46° Northeast 526 605 43,000  Level FlightAware Transoceanic
05:37AM 28.6273 -54.2565 46° Northeast 526 605 43,000  Level FlightAware Transoceanic
05:38AM 28.7315 -54.1317 46° Northeast 526 605 43,000  Level FlightAware Transoceanic
05:39AM 28.8356 -54.0066 47° Northeast 526 605 43,000  Level FlightAware Transoceanic
05:40AM 28.9395 -53.8813 47° Northeast 526 605 43,000  Level FlightAware Transoceanic
05:41AM 29.0433 -53.7558 47° Northeast 526 605 43,000  Level FlightAware Transoceanic
05:42AM 29.0433 -53.7558 47° Northeast 543 625 43,000  Level FlightAware Transoceanic
05:43AM 29.1470 -53.6300 47° Northeast 543 625 43,000  Level FlightAware Transoceanic
05:44AM 29.2506 -53.5040 47° Northeast 543 625 43,000  Level FlightAware Transoceanic
05:45AM 29.3540 -53.3777 47° Northeast 543 625 43,000  Level FlightAware Transoceanic
05:46AM 29.4574 -53.2511 47° Northeast 543 625 43,000  Level FlightAware Transoceanic
05:47AM 29.5606 -53.1243 47° Northeast 543 625 43,000  Level FlightAware Transoceanic
05:48AM 29.6637 -52.9972 47° Northeast 543 625 43,000  Level FlightAware Transoceanic
05:49AM 29.7667 -52.8699 47° Northeast 543 625 43,000  Level FlightAware Transoceanic
05:50AM 29.8696 -52.7423 47° Northeast 543 625 43,000  Level FlightAware Transoceanic
05:51AM 29.9723 -52.6145 47° Northeast 543 625 43,000  Level FlightAware Transoceanic
05:52AM 30.0749 -52.4863 47° Northeast 543 625 43,000  Level FlightAware Transoceanic
05:53AM 30.1774 -52.3579 47° Northeast 543 625 43,000  Level FlightAware Transoceanic
05:54AM 30.2798 -52.2293 47° Northeast 543 625 43,000  Level FlightAware Transoceanic
05:55AM 30.3820 -52.1004 47° Northeast 543 625 43,000  Level FlightAware Transoceanic
05:56AM 30.4841 -51.9712 48° Northeast 543 625 43,000  Level FlightAware Transoceanic
05:57AM 30.5861 -51.8417 48° Northeast 543 625 43,000  Level FlightAware Transoceanic
05:58AM 30.6880 -51.7120 48° Northeast 543 625 43,000  Level FlightAware Transoceanic
05:59AM 30.7897 -51.5820 48° Northeast 543 625 43,000  Level FlightAware Transoceanic
06:00AM 30.8913 -51.4517 48° Northeast 543 625 43,000  Level FlightAware Transoceanic
06:01AM 30.9927 -51.3211 48° Northeast 543 625 43,000  Level FlightAware Transoceanic
06:02AM 31.0941 -51.1903 48° Northeast 543 625 43,000  Level FlightAware Transoceanic
06:03AM 31.1953 -51.0592 48° Northeast 543 625 43,000  Level FlightAware Transoceanic
06:04AM 31.2963 -50.9278 48° Northeast 543 625 43,000  Level FlightAware Transoceanic
06:05AM 31.3973 -50.7961 48° Northeast 543 625 43,000  Level FlightAware Transoceanic
06:06AM 31.4981 -50.6641 48° Northeast 543 625 43,000  Level FlightAware Transoceanic
06:07AM 31.5987 -50.5319 48° Northeast 543 625 43,000  Level FlightAware Transoceanic
06:08AM 31.6992 -50.3993 48° Northeast 543 625 43,000  Level FlightAware Transoceanic
06:09AM 31.7996 -50.2665 48° Northeast 543 625 43,000  Level FlightAware Transoceanic
06:10AM 31.8999 -50.1334 48° Northeast 543 625 43,000  Level FlightAware Transoceanic
06:11AM 32.0000 -50.0000 53° Northeast 543 625 43,000  Level FlightAware Transoceanic
06:12AM 32.0938 -49.8535 53° Northeast 543 625 43,000  Level FlightAware Transoceanic
06:13AM 32.1874 -49.7067 53° Northeast 543 625 43,000  Level FlightAware Transoceanic
06:14AM 32.2808 -49.5596 53° Northeast 543 625 43,000  Level FlightAware Transoceanic
06:14AM 32.0000 -50.0000 53° Northeast 544 626 43,000  Level New York Oceanic (ODAPS)
06:15AM 32.3741 -49.4121 53° Northeast 543 625 43,000  Level FlightAware Transoceanic
06:16AM 32.4672 -49.2644 53° Northeast 543 625 43,000  Level FlightAware Transoceanic
06:17AM 32.5601 -49.1164 53° Northeast 543 625 43,000  Level FlightAware Transoceanic
06:18AM 32.6529 -48.9680 53° Northeast 543 625 43,000  Level FlightAware Transoceanic
06:19AM 32.7454 -48.8194 54° Northeast 543 625 43,000  Level FlightAware Transoceanic
06:20AM 32.8134 -48.7099 54° Northeast 544 626 43,000  Level FlightAware Transoceanic
06:21AM 32.9029 -48.5651 54° Northeast 544 626 43,000  Level FlightAware Transoceanic
06:22AM 32.9923 -48.4201 54° Northeast 544 626 43,000  Level FlightAware Transoceanic
06:23AM 33.0816 -48.2747 54° Northeast 544 626 43,000  Level FlightAware Transoceanic
06:24AM 33.1706 -48.1290 54° Northeast 544 626 43,000  Level FlightAware Transoceanic
06:25AM 33.2595 -47.9830 54° Northeast 544 626 43,000  Level FlightAware Transoceanic
06:26AM 33.3482 -47.8368 54° Northeast 544 626 43,000  Level FlightAware Transoceanic
06:27AM 33.4367 -47.6902 54° Northeast 544 626 43,000  Level FlightAware Transoceanic
06:28AM 33.5251 -47.5434 54° Northeast 544 626 43,000  Level FlightAware Transoceanic
06:29AM 33.6133 -47.3962 54° Northeast 544 626 43,000  Level FlightAware Transoceanic
06:30AM 33.7013 -47.2487 54° Northeast 544 626 43,000  Level FlightAware Transoceanic
06:31AM 33.7892 -47.1010 54° Northeast 544 626 43,000  Level FlightAware Transoceanic
06:32AM 33.8768 -46.9529 55° Northeast 544 626 43,000  Level FlightAware Transoceanic
06:33AM 33.9643 -46.8045 55° Northeast 544 626 43,000  Level FlightAware Transoceanic
06:34AM 34.0516 -46.6559 55° Northeast 544 626 43,000  Level FlightAware Transoceanic
06:35AM 34.1388 -46.5069 55° Northeast 544 626 43,000  Level FlightAware Transoceanic
06:36AM 34.2257 -46.3576 55° Northeast 544 626 43,000  Level FlightAware Transoceanic
06:37AM 34.3125 -46.2080 55° Northeast 544 626 43,000  Level FlightAware Transoceanic
06:38AM 34.3991 -46.0581 55° Northeast 544 626 43,000  Level FlightAware Transoceanic
06:39AM 34.4855 -45.9079 55° Northeast 544 626 43,000  Level FlightAware Transoceanic
06:40AM 34.5717 -45.7573 55° Northeast 544 626 43,000  Level FlightAware Transoceanic
06:41AM 34.6577 -45.6065 55° Northeast 544 626 43,000  Level FlightAware Transoceanic
06:42AM 34.7436 -45.4553 55° Northeast 544 626 43,000  Level FlightAware Transoceanic
06:43AM 34.8292 -45.3039 55° Northeast 544 626 43,000  Level FlightAware Transoceanic
06:44AM 34.9147 -45.1521 56° Northeast 544 626 43,000  Level FlightAware Transoceanic
06:45AM 35.0000 -45.0000 62° Northeast 544 626 43,000  Level FlightAware Transoceanic
06:46AM 35.0723 -44.8318 62° Northeast 544 626 43,000  Level FlightAware Transoceanic
06:47AM 35.1445 -44.6633 62° Northeast 544 626 43,000  Level FlightAware Transoceanic
06:48AM 35.2164 -44.4945 63° Northeast 544 626 43,000  Level FlightAware Transoceanic
06:49AM 35.2880 -44.3254 63° Northeast 544 626 43,000  Level FlightAware Transoceanic
06:49AM 35.0000 -45.0000 62° Northeast 542 624 43,000  Level New York Oceanic (ODAPS)
06:50AM 35.3594 -44.1560 63° Northeast 544 626 43,000  Level FlightAware Transoceanic
06:51AM 35.4306 -43.9863 63° Northeast 544 626 43,000  Level FlightAware Transoceanic
06:52AM 35.5016 -43.8163 63° Northeast 544 626 43,000  Level FlightAware Transoceanic
06:53AM 35.5723 -43.6460 63° Northeast 544 626 43,000  Level FlightAware Transoceanic
06:54AM 35.6427 -43.4754 63° Northeast 544 626 43,000  Level FlightAware Transoceanic
06:55AM 35.6896 -43.3615 63° Northeast 542 624 43,000  Level FlightAware Transoceanic
06:56AM 35.7573 -43.1961 63° Northeast 542 624 43,000  Level FlightAware Transoceanic
06:57AM 35.8248 -43.0304 63° Northeast 542 624 43,000  Level FlightAware Transoceanic
06:58AM 35.8921 -42.8645 63° Northeast 542 624 43,000  Level FlightAware Transoceanic
06:59AM 35.9591 -42.6982 64° Northeast 542 624 43,000  Level FlightAware Transoceanic
07:00AM 36.0259 -42.5317 64° Northeast 542 624 43,000  Level FlightAware Transoceanic
07:01AM 36.0925 -42.3649 64° Northeast 542 624 43,000  Level FlightAware Transoceanic
07:02AM 36.1589 -42.1978 64° Northeast 542 624 43,000  Level FlightAware Transoceanic
07:03AM 36.2250 -42.0305 64° Northeast 542 624 43,000  Level FlightAware Transoceanic
07:04AM 36.2909 -41.8628 64° Northeast 542 624 43,000  Level FlightAware Transoceanic
07:05AM 36.3565 -41.6949 64° Northeast 542 624 43,000  Level FlightAware Transoceanic
07:06AM 36.4220 -41.5267 64° Northeast 542 624 43,000  Level FlightAware Transoceanic
07:07AM 36.4872 -41.3582 64° Northeast 542 624 43,000  Level FlightAware Transoceanic
07:08AM 36.5521 -41.1894 64° Northeast 542 624 43,000  Level FlightAware Transoceanic
07:09AM 36.6168 -41.0203 65° Northeast 542 624 43,000  Level FlightAware Transoceanic
07:10AM 36.6813 -40.8510 65° Northeast 542 624 43,000  Level FlightAware Transoceanic
07:11AM 36.7455 -40.6814 65° Northeast 542 624 43,000  Level FlightAware Transoceanic
07:12AM 36.8095 -40.5115 65° Northeast 542 624 43,000  Level FlightAware Transoceanic
07:13AM 36.8732 -40.3413 65° Northeast 542 624 43,000  Level FlightAware Transoceanic
07:14AM 36.9367 -40.1708 65° Northeast 542 624 43,000  Level FlightAware Transoceanic
07:15AM 37.0000 -40.0000 60° Northeast 542 624 43,000  Level FlightAware Transoceanic
07:16AM 37.0772 -39.8342 60° Northeast 542 624 43,000  Level FlightAware Transoceanic
07:17AM 37.1543 -39.6682 60° Northeast 542 624 43,000  Level FlightAware Transoceanic
07:18AM 37.2310 -39.5017 60° Northeast 542 624 43,000  Level FlightAware Transoceanic
07:19AM 37.3076 -39.3349 60° Northeast 542 624 43,000  Level FlightAware Transoceanic
07:19AM 37.0000 -40.0000 60° Northeast 532 612 43,000  Level ETMS Enhanced Traffic Management System
07:20AM 37.3839 -39.1678 60° Northeast 542 624 43,000  Level FlightAware Transoceanic
07:21AM 37.4599 -39.0004 60° Northeast 542 624 43,000  Level FlightAware Transoceanic
07:22AM 37.5358 -38.8326 60° Northeast 542 624 43,000  Level FlightAware Transoceanic
07:23AM 37.6114 -38.6645 60° Northeast 542 624 43,000  Level FlightAware Transoceanic
07:24AM 37.6867 -38.4960 61° Northeast 542 624 43,000  Level FlightAware Transoceanic
07:25AM 37.7364 -38.3844 61° Northeast 532 612 43,000  Level FlightAware Transoceanic
07:26AM 37.8088 -38.2211 61° Northeast 532 612 43,000  Level FlightAware Transoceanic
07:27AM 37.8810 -38.0575 61° Northeast 532 612 43,000  Level FlightAware Transoceanic
07:28AM 37.9530 -37.8935 61° Northeast 532 612 43,000  Level FlightAware Transoceanic
07:29AM 38.0247 -37.7293 61° Northeast 532 612 43,000  Level FlightAware Transoceanic
07:30AM 38.0962 -37.5647 61° Northeast 532 612 43,000  Level FlightAware Transoceanic
07:31AM 38.1675 -37.3998 61° Northeast 532 612 43,000  Level FlightAware Transoceanic
07:32AM 38.2386 -37.2345 61° Northeast 532 612 43,000  Level FlightAware Transoceanic
07:33AM 38.3094 -37.0690 61° Northeast 532 612 43,000  Level FlightAware Transoceanic
07:34AM 38.3800 -36.9031 62° Northeast 532 612 43,000  Level FlightAware Transoceanic
07:35AM 38.4503 -36.7369 62° Northeast 532 612 43,000  Level FlightAware Transoceanic
07:36AM 38.5205 -36.5704 62° Northeast 532 612 43,000  Level FlightAware Transoceanic
07:37AM 38.5903 -36.4035 62° Northeast 532 612 43,000  Level FlightAware Transoceanic
07:38AM 38.6600 -36.2363 62° Northeast 532 612 43,000  Level FlightAware Transoceanic
07:39AM 38.7294 -36.0688 62° Northeast 532 612 43,000  Level FlightAware Transoceanic
07:40AM 38.7985 -35.9010 62° Northeast 532 612 43,000  Level FlightAware Transoceanic
07:41AM 38.8675 -35.7328 62° Northeast 532 612 43,000  Level FlightAware Transoceanic
07:42AM 38.9361 -35.5644 62° Northeast 532 612 43,000  Level FlightAware Transoceanic
07:43AM 39.0046 -35.3956 63° Northeast 532 612 43,000  Level FlightAware Transoceanic
07:44AM 39.0728 -35.2264 63° Northeast 532 612 43,000  Level FlightAware Transoceanic
07:45AM 39.1407 -35.0570 63° Northeast 532 612 43,000  Level FlightAware Transoceanic
07:46AM 39.2084 -34.8872 63° Northeast 532 612 43,000  Level FlightAware Transoceanic
07:47AM 39.2759 -34.7171 63° Northeast 532 612 43,000  Level FlightAware Transoceanic
07:48AM 39.3431 -34.5466 63° Northeast 532 612 43,000  Level FlightAware Transoceanic
07:49AM 39.4101 -34.3759 63° Northeast 532 612 43,000  Level FlightAware Transoceanic
07:50AM 39.4768 -34.2048 63° Northeast 532 612 43,000  Level FlightAware Transoceanic
07:51AM 39.5432 -34.0334 63° Northeast 532 612 43,000  Level FlightAware Transoceanic
07:52AM 39.6095 -33.8616 63° Northeast 532 612 43,000  Level FlightAware Transoceanic
07:53AM 39.6754 -33.6895 64° Northeast 532 612 43,000  Level FlightAware Transoceanic
07:54AM 39.7411 -33.5171 64° Northeast 532 612 43,000  Level FlightAware Transoceanic
07:55AM 39.8065 -33.3444 64° Northeast 532 612 43,000  Level FlightAware Transoceanic
07:56AM 39.8717 -33.1713 64° Northeast 532 612 43,000  Level FlightAware Transoceanic
07:57AM 39.9367 -32.9979 64° Northeast 532 612 43,000  Level FlightAware Transoceanic
07:58AM 40.0013 -32.8242 64° Northeast 532 612 43,000  Level FlightAware Transoceanic
07:59AM 40.0658 -32.6502 64° Northeast 532 612 43,000  Level FlightAware Transoceanic
08:00AM 40.1299 -32.4758 64° Northeast 532 612 43,000  Level FlightAware Transoceanic
08:01AM 40.1938 -32.3011 64° Northeast 532 612 43,000  Level FlightAware Transoceanic
08:02AM 40.2574 -32.1260 65° Northeast 532 612 43,000  Level FlightAware Transoceanic
08:03AM 40.3208 -31.9507 65° Northeast 532 612 43,000  Level FlightAware Transoceanic
08:04AM 40.3839 -31.7750 65° Northeast 532 612 43,000  Level FlightAware Transoceanic
08:05AM 40.4467 -31.5990 65° Northeast 532 612 43,000  Level FlightAware Transoceanic
08:06AM 40.5093 -31.4226 65° Northeast 532 612 43,000  Level FlightAware Transoceanic
08:07AM 40.5716 -31.2460 65° Northeast 532 612 43,000  Level FlightAware Transoceanic
08:08AM 40.6336 -31.0689 65° Northeast 532 612 43,000  Level FlightAware Transoceanic
08:09AM 40.6953 -30.8916 65° Northeast 532 612 43,000  Level FlightAware Transoceanic
08:10AM 40.7568 -30.7139 66° East 532 612 43,000  Level FlightAware Transoceanic
08:11AM 40.8180 -30.5359 66° East 532 612 43,000  Level FlightAware Transoceanic
08:12AM 40.8723 -30.3773 66° East  Level FlightAware Approximate
08:13AM 40.9263 -30.2183 66° East  Level FlightAware Approximate
08:14AM 40.9801 -30.0591 66° East  Level FlightAware Approximate
08:15AM 41.0337 -29.8996 66° East  Level FlightAware Approximate
08:16AM 41.0190 -29.9154 73° East  Level FlightAware Approximate
08:17AM 41.0564 -29.7479 73° East  Level FlightAware Approximate
08:18AM 41.0935 -29.5803 74° East  Level FlightAware Approximate
08:19AM 41.1304 -29.4124 74° East  Level FlightAware Approximate
08:20AM 41.1671 -29.2444 74° East  Level FlightAware Approximate
08:21AM 41.2035 -29.0762 74° East  Level FlightAware Approximate
08:22AM 41.2397 -28.9077 74° East  Level FlightAware Approximate
08:23AM 41.2756 -28.7392 74° East  Level FlightAware Approximate
08:24AM 41.3113 -28.5704 74° East  Level FlightAware Approximate
08:25AM 41.3467 -28.4014 74° East  Level FlightAware Approximate
08:26AM 41.3819 -28.2323 74° East  Level FlightAware Approximate
08:27AM 41.4168 -28.0629 75° East  Level FlightAware Approximate
08:28AM 41.4515 -27.8934 75° East  Level FlightAware Approximate
08:29AM 41.4860 -27.7237 75° East  Level FlightAware Approximate
08:30AM 41.5202 -27.5539 75° East  Level FlightAware Approximate
08:31AM 41.5541 -27.3838 75° East  Level FlightAware Approximate
08:32AM 41.5878 -27.2136 75° East  Level FlightAware Approximate
08:33AM 41.6212 -27.0432 75° East  Level FlightAware Approximate
08:34AM 41.6544 -26.8726 75° East  Level FlightAware Approximate
08:35AM 41.6873 -26.7019 75° East  Level FlightAware Approximate
08:36AM 41.7200 -26.5309 76° East  Level FlightAware Approximate
08:37AM 41.7524 -26.3598 76° East  Level FlightAware Approximate
08:38AM 41.7846 -26.1885 76° East  Level FlightAware Approximate
08:39AM 41.8165 -26.0171 76° East  Level FlightAware Approximate
08:40AM 41.8482 -25.8455 76° East  Level FlightAware Approximate
08:41AM 41.8796 -25.6737 76° East  Level FlightAware Approximate
08:42AM 41.9108 -25.5017 76° East  Level FlightAware Approximate
08:43AM 41.9416 -25.3296 76° East  Level FlightAware Approximate
08:44AM 41.9723 -25.1573 76° East  Level FlightAware Approximate
08:45AM 42.0007 -24.9845 87° East  Level FlightAware Approximate
08:46AM 42.0082 -24.8075 87° East  Level FlightAware Approximate
08:47AM 42.0155 -24.6305 87° East  Level FlightAware Approximate
08:48AM 42.0225 -24.4534 87° East  Level FlightAware Approximate
08:49AM 42.0292 -24.2763 87° East  Level FlightAware Approximate
08:50AM 42.0356 -24.0992 87° East  Level FlightAware Approximate
08:51AM 42.0418 -23.9220 87° East  Level FlightAware Approximate
08:52AM 42.0477 -23.7448 87° East  Level FlightAware Approximate
08:53AM 42.0534 -23.5675 87° East  Level FlightAware Approximate
08:54AM 42.0587 -23.3903 88° East  Level FlightAware Approximate
08:55AM 42.0638 -23.2130 88° East  Level FlightAware Approximate
08:56AM 42.0686 -23.0356 88° East  Level FlightAware Approximate
08:57AM 42.0732 -22.8583 88° East  Level FlightAware Approximate
08:58AM 42.0774 -22.6809 88° East  Level FlightAware Approximate
08:59AM 42.0814 -22.5035 88° East  Level FlightAware Approximate
09:00AM 42.0852 -22.3261 88° East  Level FlightAware Approximate
09:01AM 42.0886 -22.1486 88° East  Level FlightAware Approximate
09:02AM 42.0918 -21.9711 89° East  Level FlightAware Approximate
09:03AM 42.0947 -21.7937 89° East  Level FlightAware Approximate
09:04AM 42.0973 -21.6162 89° East  Level FlightAware Approximate
09:05AM 42.0997 -21.4387 89° East  Level FlightAware Approximate
09:06AM 42.1017 -21.2611 89° East  Level FlightAware Approximate
09:07AM 42.1035 -21.0836 89° East  Level FlightAware Approximate
09:08AM 42.1051 -20.9061 89° East  Level FlightAware Approximate
09:09AM 42.1063 -20.7285 89° East  Level FlightAware Approximate
09:10AM 42.1073 -20.5510 90° East  Level FlightAware Approximate
09:11AM 42.1080 -20.3734 90° East  Level FlightAware Approximate
09:12AM 42.1085 -20.1958 90° East  Level FlightAware Approximate
09:13AM 42.1086 -20.0183 90° East  Level FlightAware Approximate
09:14AM 42.1085 -19.8407 90° East  Level FlightAware Approximate
09:15AM 42.1082 -19.6631 90° East  Level FlightAware Approximate
09:16AM 42.1075 -19.4856 90° East  Level FlightAware Approximate
09:17AM 42.1066 -19.3080 90° East  Level FlightAware Approximate
09:18AM 42.1054 -19.1304 90° East  Level FlightAware Approximate
09:19AM 42.1039 -18.9529 91° East  Level FlightAware Approximate
09:20AM 42.1021 -18.7754 91° East  Level FlightAware Approximate
09:21AM 42.1001 -18.5978 91° East  Level FlightAware Approximate
09:22AM 42.0978 -18.4203 91° East  Level FlightAware Approximate
09:23AM 42.0952 -18.2428 91° East  Level FlightAware Approximate
09:24AM 42.0924 -18.0653 91° East  Level FlightAware Approximate
09:25AM 42.0893 -17.8879 91° East  Level FlightAware Approximate
09:26AM 42.0859 -17.7104 91° East  Level FlightAware Approximate
09:27AM 42.0822 -17.5330 92° East  Level FlightAware Approximate
09:28AM 42.0783 -17.3556 92° East  Level FlightAware Approximate
09:29AM 42.0741 -17.1782 92° East  Level FlightAware Approximate
09:30AM 42.0696 -17.0008 92° East  Level FlightAware Approximate
09:31AM 42.0648 -16.8235 92° East  Level FlightAware Approximate
09:32AM 42.0598 -16.6462 92° East  Level FlightAware Approximate
09:33AM 42.0545 -16.4689 92° East  Level FlightAware Approximate
09:34AM 42.0489 -16.2916 92° East  Level FlightAware Approximate
09:35AM 42.0431 -16.1144 92° East  Level FlightAware Approximate
09:36AM 42.0369 -15.9372 93° East  Level FlightAware Approximate
09:37AM 42.0305 -15.7601 93° East  Level FlightAware Approximate
09:38AM 42.0239 -15.5830 93° East  Level FlightAware Approximate
09:39AM 42.0169 -15.4059 93° East  Level FlightAware Approximate
09:40AM 42.0097 -15.2289 93° East  Level FlightAware Approximate
09:41AM 42.0023 -15.0519 93° East  Level FlightAware Approximate
09:42AM 41.9986 -14.8747 91° East  Level FlightAware Approximate
09:43AM 41.9963 -14.6975 91° East  Level FlightAware Approximate
09:44AM 41.9937 -14.5203 91° East  Level FlightAware Approximate
09:45AM 41.9909 -14.3431 91° East  Level FlightAware Approximate
09:46AM 41.9878 -14.1659 91° East  Level FlightAware Approximate
09:47AM 41.9844 -13.9887 91° East  Level FlightAware Approximate
09:48AM 41.9808 -13.8116 92° East  Level FlightAware Approximate
09:49AM 41.9769 -13.6344 92° East  Level FlightAware Approximate
09:50AM 41.9727 -13.4573 92° East  Level FlightAware Approximate
09:51AM 41.9682 -13.2802 92° East  Level FlightAware Approximate
09:52AM 41.9635 -13.1032 92° East  Level FlightAware Approximate
09:53AM 41.9585 -12.9261 92° East  Level FlightAware Approximate
09:54AM 41.9532 -12.7491 92° East  Level FlightAware Approximate
09:55AM 41.9477 -12.5722 92° East  Level FlightAware Approximate
09:56AM 41.9418 -12.3952 92° East  Level FlightAware Approximate
09:57AM 41.9358 -12.2183 93° East  Level FlightAware Approximate
09:58AM 41.9294 -12.0414 93° East  Level FlightAware Approximate
09:59AM 41.9228 -11.8646 93° East  Level FlightAware Approximate
10:00AM 41.9159 -11.6878 93° East  Level FlightAware Approximate
10:01AM 41.9087 -11.5111 93° East  Level FlightAware Approximate
10:02AM 41.9012 -11.3343 93° East  Level FlightAware Approximate
10:03AM 41.8935 -11.1577 93° East  Level FlightAware Approximate
10:04AM 41.8855 -10.9810 93° East  Level FlightAware Approximate
10:05AM 41.8773 -10.8044 94° East  Level FlightAware Approximate
10:06AM 41.8687 -10.6279 94° East  Level FlightAware Approximate
10:07AM 41.8599 -10.4514 94° East  Level FlightAware Approximate
10:08AM 41.8509 -10.2750 94° East  Level FlightAware Approximate
10:09AM 41.8415 -10.0986 94° East  Level FlightAware Approximate
10:10AM 41.8319 -9.9222 94° East  Level FlightAware Approximate
10:11AM 41.8220 -9.7459 94° East  Level FlightAware Approximate
10:12AM 41.8119 -9.5697 94° East  Level FlightAware Approximate
10:13AM 41.8015 -9.3935 94° East  Level FlightAware Approximate
10:14AM 41.7908 -9.2174 95° East  Level FlightAware Approximate
10:15AM 41.7798 -9.0414 95° East  Level FlightAware Approximate
10:16AM 41.7686 -8.8654 95° East  Level FlightAware Approximate
10:17AM 41.7571 -8.6894 95° East  Level FlightAware Approximate
10:18AM 41.7454 -8.5136 95° East  Level FlightAware Approximate
10:19AM 41.7333 -8.3378 95° East  Level FlightAware Approximate
10:20AM 41.7210 -8.1620 95° East  Level FlightAware Approximate
10:21AM 41.7085 -7.9863 95° East  Level FlightAware Approximate
10:22AM 41.6956 -7.8107 96° East  Level FlightAware Approximate
10:23AM 41.6825 -7.6352 96° East  Level FlightAware Approximate
10:24AM 41.6692 -7.4598 96° East  Level FlightAware Approximate
10:25AM 41.6555 -7.2844 96° East  Level FlightAware Approximate
10:26AM 41.6416 -7.1090 96° East  Level FlightAware Approximate
10:27AM 41.6275 -6.9338 96° East  Level FlightAware Approximate
10:28AM 41.6130 -6.7587 96° East  Level FlightAware Approximate
10:29AM 41.5984 -6.5836 96° East  Level FlightAware Approximate
10:30AM 41.5834 -6.4086 96° East  Level FlightAware Approximate
10:31AM 41.5682 -6.2337 97° East  Level FlightAware Approximate
10:32AM 41.5546 -6.0586 96° East  Level FlightAware Approximate
10:33AM 41.5417 -5.8834 95° East  Level FlightAware Approximate
10:34AM 41.5261 -5.7088 99° East  Level FlightAware Approximate
10:35AM 41.4823 -5.5478 124° Southeast  Level FlightAware Approximate
10:36AM 41.4091 -5.4016 124° Southeast  Level FlightAware Approximate
10:37AM 41.3384 -5.2535 122° Southeast  Level FlightAware Approximate
10:38AM 41.2688 -5.1046 122° Southeast  Level FlightAware Approximate
10:39AM 41.1953 -4.9594 124° Southeast  Level FlightAware Approximate
10:40AM 41.1214 -4.8145 124° Southeast  Level FlightAware Approximate
10:41AM 41.0473 -4.6700 124° Southeast  Level FlightAware Approximate
10:42AM 40.9731 -4.5258 124° Southeast  Level FlightAware Approximate
10:43AM 40.8980 -4.3824 126° Southeast  Level FlightAware Approximate
10:44AM 40.8210 -4.2412 126° Southeast  Level FlightAware Approximate
10:45AM 40.7482 -4.0962 123° Southeast  Level FlightAware Approximate
10:46AM 40.6741 -3.9525 126° Southeast  Level FlightAware Approximate
10:47AM 40.5978 -3.8111 118° Southeast  Level FlightAware Approximate
10:48AM 40.5264 -3.6662 128° Southeast  Level FlightAware Approximate
10:49AM 40.4936 -3.5668 123° Southeast  Level Estimated
10:50AM 40.4936 -3.5668 123° Southeast  Level Estimated
10:51AM 40.4936 -3.5668 123° Southeast  Level Estimated
10:52AM 40.4936 -3.5668 123° Southeast  Level Estimated
10:53AM 40.4936 -3.5668 123° Southeast  Level Estimated
10:54AM 40.4936 -3.5668 123° Southeast  Level Estimated
10:55AM 40.4936 -3.5668 123° Southeast  Level Estimated
10:56AM 40.4936 -3.5668 123° Southeast  Level Estimated
10:57AM 40.4936 -3.5668 123° Southeast  Level Estimated